Afton, Texas
Current Conditions -  °F | °C
As of 4:53 PM on Saturday 25 Oct 2014 (Local Time) from KCDS Reporting Station
Clear Clear  
Wind Chill: 33°   Ceiling: Unl
Heat Index: 33°   Visibility: 10mi
Dew Point:   Wind: 16mph
Humidity: 22%   Direction: 210°SSW
Pressure: 30.05"   Gusts: NA
Location:  33.76°N, 100.82°W
Report Text: KCDS 252153Z AUTO 21014KT 10SM CLR 33/08 A3005 RMK AO2 SLP150 T03280083
Loading
Personal Weather Stations






























Interactive Weather Map
Tropical Storm Tracking
New forecast layout! Learn more

10-Day Weather Forecast

Advertisements
Track Severe Weather on mobile